This is the latest recevied weather packets stored in our database for station/object HS2LXA-WX. If no packets are shown the sender has not sent any weather packets the latest 1 day(s).
| Time | Temp. | Humidity | Pressure | Rain* | Wind** | Luminosity | Snow |
|---|---|---|---|---|---|---|---|
| 1778041928 | 32.78° C | 78% | 1013.2 hPa | 0 mm | - | - | - |
| 1778040933 | 32.78° C | 77% | 1013.1 hPa | 0 mm | - | - | - |
| 1778040333 | 33.33° C | 76% | 1013.1 hPa | 0 mm | - | - | - |
| 1778039728 | 33.33° C | 76% | 1013.1 hPa | 0 mm | - | - | - |
| 1778038143 | 33.33° C | 76% | 1013.1 hPa | 0 mm | - | - | - |
| 1778037541 | 32.78° C | 78% | 1013.1 hPa | 0 mm | - | - | - |
| 1778036204 | 33.33° C | 74% | 1013.1 hPa | 0 mm | - | - | - |
| 1778035601 | 34.44° C | 69% | 1013.1 hPa | 0 mm | - | - | - |
| 1778035001 | 34.44° C | 69% | 1013.1 hPa | 0 mm | - | - | - |
| 1778034400 | 33.89° C | 71% | 1013.1 hPa | 0 mm | - | - | - |
| 1778033800 | 33.33° C | 73% | 1013.2 hPa | 0 mm | - | - | - |
| 1778033200 | 33.33° C | 76% | 1013.2 hPa | 0 mm | - | - | - |
| 1778032599 | 32.78° C | 78% | 1013.1 hPa | 0 mm | - | - | - |
| 1778031999 | 32.78° C | 76% | 1013.1 hPa | 0 mm | - | - | - |
| 1778030859 | 32.22° C | 79% | 1013.2 hPa | 0 mm | - | - | - |
| 1778030259 | 32.22° C | 82% | 1013.2 hPa | 0 mm | - | - | - |
| 1778029058 | 31.67° C | 84% | 1013.2 hPa | 0 mm | - | - | - |
| 1778027255 | 31.11° C | 86% | 1013.1 hPa | 0 mm | - | - | - |
| 1778023010 | 30.56° C | 85% | 1013.1 hPa | 0 mm | - | - | - |
| 1778021809 | 30.56° C | 85% | 1013.1 hPa | 0 mm | - | - | - |
| 1778021209 | 30.56° C | 86% | 1013.1 hPa | 0 mm | - | - | - |
| 1778017603 | 30.56° C | 86% | 1013.1 hPa | 0 mm | - | - | - |
| 1778015198 | 31.11° C | 85% | 1013.1 hPa | 0 mm | - | - | - |
| 1778011930 | 31.11° C | 84% | 1013.1 hPa | 0 mm | - | - | - |
| 1778011329 | 31.11° C | 84% | 1013.1 hPa | 0 mm | - | - | - |
* Rain latest hour (hover to see other rain measurements)
** Current wind speed in m/s (hover to see current wind gust speed)